Time;durP1;ratioP1;P1;durP2;ratioP2;P2;SDS_P1;SDS_P2;PMS_P1;PMS_P2;Temp;Humidity;BMP_temperature;BMP_pressure;BME280_temperature;BME280_humidity;BME280_pressure;Samples;Min_cycle;Max_cycle;Signal;HPM_P1;HPM_P2
2023/09/11 00:00:17;;;;;;;0.10;0.10;;;;;;;;;;1050451;28;20024;-72
2023/09/11 00:00:47;;;;;;;1.67;0.68;;;;;;;;;;1054032;28;20408;-72
2023/09/11 00:01:18;;;;;;;3.00;1.85;;;;;;;;;;1058851;27;20048;-72
2023/09/11 00:01:49;;;;;;;5.85;0.52;;;;;;;;;;1058760;27;20011;-73
2023/09/11 00:02:19;;;;;;;0.10;0.10;;;;;;;;;;1054165;28;20065;-73
2023/09/11 00:02:49;;;;;;;0.80;0.73;;;;;;;;;;1053825;28;20024;-73
2023/09/11 00:03:20;;;;;;;1.80;1.70;;;;;;;;;;1049573;28;20100;-72
2023/09/11 00:03:50;;;;;;;2.05;1.33;;;;;;;;;;1049771;28;20020;-73
2023/09/11 00:04:21;;;;;;;0.10;0.10;;;;;;;;;;1054349;28;20034;-72
2023/09/11 00:04:51;;;;;;;4.63;0.40;;;;;;;;;;1054339;28;20026;-72
2023/09/11 00:05:22;;;;;;;3.15;0.77;;;;;;;;;;1058735;28;20030;-72
2023/09/11 00:06:01;;;;;;;0.10;0.10;;;;;;;;;;1058216;28;20069;-72
2023/09/11 00:06:32;;;;;;;0.80;0.75;;;;;;;;;;1058416;27;20488;-72
2023/09/11 00:07:02;;;;;;;0.38;0.28;;;;;;;;;;1054040;28;20019;-73
2023/09/11 00:07:33;;;;;;;0.10;0.10;;;;;;;;;;1053698;28;20015;-73
2023/09/11 00:08:03;;;;;;;0.77;0.77;;;;;;;;;;1053572;28;20012;-73
2023/09/11 00:08:34;;;;;;;1.63;1.17;;;;;;;;;;1054047;28;20027;-72
2023/09/11 00:09:04;;;;;;;0.93;0.82;;;;;;;;;;1058374;27;20043;-72
2023/09/11 00:09:35;;;;;;;0.60;0.60;;;;;;;;;;1058366;28;20026;-72
2023/09/11 00:10:05;;;;;;;1.38;0.98;;;;;;;;;;1058332;27;20020;-72
2023/09/11 00:10:36;;;;;;;0.90;0.68;;;;;;;;;;1058829;27;20037;-72
2023/09/11 00:11:06;;;;;;;1.02;0.80;;;;;;;;;;1057842;28;20023;-72
2023/09/11 00:11:37;;;;;;;0.85;0.65;;;;;;;;;;1058570;28;20430;-72
2023/09/11 00:12:07;;;;;;;0.10;0.10;;;;;;;;;;1058616;28;20087;-72
2023/09/11 00:12:38;;;;;;;8.30;1.38;;;;;;;;;;1058846;28;20056;-72
2023/09/11 00:13:08;;;;;;;0.20;0.20;;;;;;;;;;1058643;28;20011;-72
2023/09/11 00:13:38;;;;;;;1.10;1.10;;;;;;;;;;1058310;27;20072;-72
2023/09/11 00:14:09;;;;;;;0.17;0.17;;;;;;;;;;1058098;28;20016;-72
2023/09/11 00:14:39;;;;;;;0.05;0.05;;;;;;;;;;1058635;28;20104;-72
2023/09/11 00:15:11;;;;;;;1.20;1.10;;;;;;;;;;1058704;28;20084;-72
2023/09/11 00:15:41;;;;;;;0.20;0.20;;;;;;;;;;1058814;27;20034;-72
2023/09/11 00:16:12;;;;;;;0.50;0.50;;;;;;;;;;1053988;28;20126;-72
2023/09/11 00:16:42;;;;;;;0.63;0.63;;;;;;;;;;1053828;28;20053;-72
2023/09/11 00:17:13;;;;;;;1.85;0.85;;;;;;;;;;1053704;28;20013;-73
2023/09/11 00:17:43;;;;;;;0.30;0.22;;;;;;;;;;1054214;28;20020;-73
2023/09/11 00:18:14;;;;;;;0.25;0.25;;;;;;;;;;1058707;28;20033;-72
2023/09/11 00:18:45;;;;;;;0.17;0.17;;;;;;;;;;1058792;28;20022;-73
2023/09/11 00:19:15;;;;;;;0.10;0.10;;;;;;;;;;1058619;28;20034;-73
2023/09/11 00:19:46;;;;;;;0.40;0.40;;;;;;;;;;1058240;28;20019;-72
2023/09/11 00:20:16;;;;;;;1.90;0.75;;;;;;;;;;1058341;28;20022;-73
2023/09/11 00:20:47;;;;;;;0.95;0.82;;;;;;;;;;1058547;28;20031;-73
2023/09/11 00:21:17;;;;;;;1.15;1.13;;;;;;;;;;1058832;28;20391;-73
2023/09/11 00:21:48;;;;;;;0.90;0.90;;;;;;;;;;1058641;28;20019;-72
2023/09/11 00:22:18;;;;;;;0.13;0.13;;;;;;;;;;1058545;28;20031;-72
2023/09/11 00:22:49;;;;;;;2.72;0.30;;;;;;;;;;1058122;28;20023;-73
2023/09/11 00:23:19;;;;;;;2.03;0.55;;;;;;;;;;1058332;28;20080;-72
2023/09/11 00:23:49;;;;;;;0.08;0.08;;;;;;;;;;1058469;28;20498;-74
2023/09/11 00:24:20;;;;;;;0.10;0.10;;;;;;;;;;1058825;28;20114;-73
2023/09/11 00:24:50;;;;;;;0.63;0.47;;;;;;;;;;1058717;28;20102;-73
2023/09/11 00:25:21;;;;;;;0.10;0.10;;;;;;;;;;1058636;28;20029;-72
2023/09/11 00:25:51;;;;;;;2.38;0.68;;;;;;;;;;1058134;28;20079;-73
2023/09/11 00:26:22;;;;;;;0.80;0.63;;;;;;;;;;1058368;28;20016;-72
2023/09/11 00:26:52;;;;;;;0.20;0.20;;;;;;;;;;1058618;28;20023;-72
2023/09/11 00:27:23;;;;;;;1.20;0.68;;;;;;;;;;1058777;28;20036;-72
2023/09/11 00:27:53;;;;;;;0.10;0.10;;;;;;;;;;1058596;28;20421;-72
2023/09/11 00:28:23;;;;;;;0.35;0.35;;;;;;;;;;1058473;28;20031;-72
2023/09/11 00:28:54;;;;;;;0.73;0.70;;;;;;;;;;1058240;28;20061;-73
2023/09/11 00:29:24;;;;;;;1.85;1.10;;;;;;;;;;1058368;28;20456;-72
2023/09/11 00:29:57;;;;;;;0.20;0.20;;;;;;;;;;1057126;28;20392;-72
2023/09/11 00:30:28;;;;;;;0.45;0.30;;;;;;;;;;1058196;28;20391;-72
2023/09/11 00:30:59;;;;;;;0.75;0.70;;;;;;;;;;1058249;28;20046;-72
2023/09/11 00:31:29;;;;;;;1.90;1.73;;;;;;;;;;1058362;28;20023;-73
2023/09/11 00:32:00;;;;;;;0.73;0.40;;;;;;;;;;1057169;28;20023;-73
2023/09/11 00:32:30;;;;;;;2.28;2.10;;;;;;;;;;1058188;28;20540;-73
2023/09/11 00:33:01;;;;;;;0.38;0.38;;;;;;;;;;1059511;28;20395;-73
2023/09/11 00:33:31;;;;;;;0.52;0.52;;;;;;;;;;1057218;28;20474;-72
2023/09/11 00:34:02;;;;;;;1.17;0.75;;;;;;;;;;1058173;28;20391;-73
2023/09/11 00:34:32;;;;;;;0.38;0.38;;;;;;;;;;1058411;28;20426;-73
2023/09/11 00:35:03;;;;;;;0.10;0.10;;;;;;;;;;1058752;28;20550;-73
2023/09/11 00:35:34;;;;;;;0.80;0.45;;;;;;;;;;1058797;28;20069;-73
2023/09/11 00:36:04;;;;;;;0.93;0.93;;;;;;;;;;1058608;28;20020;-73
2023/09/11 00:36:35;;;;;;;3.30;1.55;;;;;;;;;;1058391;28;20110;-73
2023/09/11 00:37:05;;;;;;;0.20;0.20;;;;;;;;;;1058277;28;20387;-72
2023/09/11 00:37:35;;;;;;;0.47;0.47;;;;;;;;;;1058437;28;20047;-73
2023/09/11 00:38:06;;;;;;;0.55;0.55;;;;;;;;;;1053378;28;20019;-72
2023/09/11 00:38:36;;;;;;;0.10;0.10;;;;;;;;;;1054482;28;20019;-72
2023/09/11 00:39:07;;;;;;;0.85;0.85;;;;;;;;;;1054210;28;20030;-72
2023/09/11 00:39:37;;;;;;;0.40;0.40;;;;;;;;;;1053329;28;20028;-72
2023/09/11 00:40:08;;;;;;;0.40;0.40;;;;;;;;;;1058946;28;20019;-72
2023/09/11 00:40:38;;;;;;;0.82;0.82;;;;;;;;;;1058390;28;20035;-72
2023/09/11 00:41:09;;;;;;;0.63;0.63;;;;;;;;;;1058729;28;20016;-72
2023/09/11 00:41:40;;;;;;;0.45;0.40;;;;;;;;;;1058742;28;20027;-72
2023/09/11 00:42:11;;;;;;;6.32;2.17;;;;;;;;;;1058517;28;20012;-72
2023/09/11 00:42:41;;;;;;;0.75;0.63;;;;;;;;;;1057253;28;20020;-73
2023/09/11 00:43:12;;;;;;;1.27;1.17;;;;;;;;;;1058214;28;20024;-73
2023/09/11 00:43:42;;;;;;;1.27;0.90;;;;;;;;;;1054533;28;20019;-73
2023/09/11 00:44:12;;;;;;;2.78;1.55;;;;;;;;;;1054213;28;20039;-73
2023/09/11 00:44:43;;;;;;;0.52;0.20;;;;;;;;;;1054192;28;20011;-73
2023/09/11 00:45:13;;;;;;;1.25;0.60;;;;;;;;;;1052612;28;20106;-73
2023/09/11 00:45:44;;;;;;;1.23;0.50;;;;;;;;;;1053591;28;20437;-73
2023/09/11 00:46:15;;;;;;;0.68;0.65;;;;;;;;;;1053728;28;20085;-73
2023/09/11 00:46:45;;;;;;;1.75;1.58;;;;;;;;;;1054140;28;20376;-73
2023/09/11 00:47:16;;;;;;;1.75;0.35;;;;;;;;;;1053985;28;20077;-73
2023/09/11 00:47:47;;;;;;;0.43;0.43;;;;;;;;;;1058052;28;20473;-72
2023/09/11 00:48:17;;;;;;;0.70;0.70;;;;;;;;;;1058439;28;20023;-72
2023/09/11 00:48:51;;;;;;;0.63;0.63;;;;;;;;;;1058231;28;20023;-72
2023/09/11 00:49:22;;;;;;;0.47;0.25;;;;;;;;;;1058260;28;20026;-72
2023/09/11 00:49:53;;;;;;;0.20;0.20;;;;;;;;;;1053430;28;20027;-72
2023/09/11 00:50:24;;;;;;;0.52;0.52;;;;;;;;;;1053987;28;20039;-72
2023/09/11 00:50:54;;;;;;;0.10;0.10;;;;;;;;;;1054200;28;20057;-72
2023/09/11 00:51:25;;;;;;;3.63;2.75;;;;;;;;;;1054346;28;20433;-72
2023/09/11 00:51:55;;;;;;;0.40;0.40;;;;;;;;;;1058418;28;20019;-73
2023/09/11 00:52:26;;;;;;;1.52;1.45;;;;;;;;;;1057742;28;20058;-73
2023/09/11 00:52:56;;;;;;;1.13;0.60;;;;;;;;;;1058209;28;20034;-73
2023/09/11 00:53:27;;;;;;;0.17;0.17;;;;;;;;;;1058670;28;20068;-73
2023/09/11 00:53:57;;;;;;;0.50;0.50;;;;;;;;;;1058520;28;20014;-73
2023/09/11 00:54:28;;;;;;;0.98;0.45;;;;;;;;;;1053396;28;20027;-73
2023/09/11 00:54:59;;;;;;;2.20;0.40;;;;;;;;;;1053756;28;20399;-73
2023/09/11 00:55:29;;;;;;;2.53;1.75;;;;;;;;;;1053916;28;20012;-73
2023/09/11 00:56:00;;;;;;;0.30;0.30;;;;;;;;;;1054214;28;20028;-73
2023/09/11 00:56:30;;;;;;;0.40;0.40;;;;;;;;;;1058583;28;20503;-73
2023/09/11 00:57:01;;;;;;;3.00;0.80;;;;;;;;;;1054427;28;20081;-73
2023/09/11 00:57:32;;;;;;;0.25;0.25;;;;;;;;;;1054458;28;20102;-73
2023/09/11 00:58:02;;;;;;;1.77;1.63;;;;;;;;;;1054439;28;20020;-73
2023/09/11 00:58:33;;;;;;;1.35;0.65;;;;;;;;;;1054833;28;20479;-73
2023/09/11 00:59:03;;;;;;;10.60;0.75;;;;;;;;;;1059516;27;20028;-73
2023/09/11 00:59:34;;;;;;;0.50;0.50;;;;;;;;;;1057387;27;20043;-73
2023/09/11 01:00:04;;;;;;;0.25;0.25;;;;;;;;;;1053226;28;20123;-72
2023/09/11 01:00:35;;;;;;;12.25;1.75;;;;;;;;;;1054171;28;20059;-72
2023/09/11 01:01:05;;;;;;;0.10;0.10;;;;;;;;;;1054487;28;20107;-72
2023/09/11 01:01:36;;;;;;;0.15;0.15;;;;;;;;;;1055071;28;20023;-72
2023/09/11 01:02:06;;;;;;;0.80;0.80;;;;;;;;;;1052072;28;20035;-72
2023/09/11 01:02:37;;;;;;;0.20;0.20;;;;;;;;;;1053284;28;20019;-72
2023/09/11 01:03:07;;;;;;;0.28;0.28;;;;;;;;;;1053692;28;20016;-72
2023/09/11 01:03:38;;;;;;;1.55;1.10;;;;;;;;;;1054354;28;20458;-72
2023/09/11 01:04:08;;;;;;;0.95;0.80;;;;;;;;;;1056908;27;20835;-72
2023/09/11 01:04:40;;;;;;;3.85;1.48;;;;;;;;;;1059089;27;20058;-73
2023/09/11 01:05:11;;;;;;;2.75;1.83;;;;;;;;;;1058681;27;20034;-73
2023/09/11 01:05:42;;;;;;;0.38;0.38;;;;;;;;;;1056358;27;20024;-73
2023/09/11 01:06:13;;;;;;;0.30;0.30;;;;;;;;;;1059350;27;20448;-73
2023/09/11 01:06:45;;;;;;;3.50;1.92;;;;;;;;;;1057876;27;20028;-73
2023/09/11 01:07:17;;;;;;;0.30;0.30;;;;;;;;;;1058902;27;20045;-72
2023/09/11 01:07:47;;;;;;;0.28;0.28;;;;;;;;;;1058148;27;20023;-72
2023/09/11 01:08:19;;;;;;;0.38;0.38;;;;;;;;;;1058587;27;20023;-72
2023/09/11 01:08:51;;;;;;;0.43;0.40;;;;;;;;;;1056472;27;20026;-72
2023/09/11 01:09:22;;;;;;;0.17;0.17;;;;;;;;;;1057766;27;20019;-73
2023/09/11 01:09:52;;;;;;;0.43;0.43;;;;;;;;;;1057652;27;20149;-73
2023/09/11 01:10:23;;;;;;;0.20;0.20;;;;;;;;;;1056716;27;20559;-73
2023/09/11 01:10:54;;;;;;;1.48;0.35;;;;;;;;;;1057711;27;20385;-72
2023/09/11 01:11:24;;;;;;;0.13;0.13;;;;;;;;;;1056588;27;20035;-72
2023/09/11 01:11:55;;;;;;;0.40;0.40;;;;;;;;;;1057903;27;20008;-72
2023/09/11 01:12:25;;;;;;;0.35;0.35;;;;;;;;;;1057692;27;20738;-72
2023/09/11 01:12:56;;;;;;;1.02;0.47;;;;;;;;;;1057254;27;20035;-73
2023/09/11 01:13:26;;;;;;;0.20;0.20;;;;;;;;;;1059070;27;20055;-73
2023/09/11 01:14:00;;;;;;;1.02;0.85;;;;;;;;;;1058911;27;20019;-73
2023/09/11 01:14:31;;;;;;;1.17;0.65;;;;;;;;;;1055057;27;20035;-73
2023/09/11 01:15:04;;;;;;;0.43;0.43;;;;;;;;;;1055479;27;20649;-73
2023/09/11 01:15:37;;;;;;;1.10;0.88;;;;;;;;;;1053917;28;20046;-72
2023/09/11 01:16:25;;;;;;;2.40;2.03;;;;;;;;;;1054903;27;20024;-72
2023/09/11 01:17:03;;;;;;;0.43;0.43;;;;;;;;;;1056100;27;20481;-72
2023/09/11 01:17:52;;;;;;;1.48;1.38;;;;;;;;;;1056949;27;20111;-73
2023/09/11 01:18:26;;;;;;;1.98;0.60;;;;;;;;;;1052969;28;20081;-72
2023/09/11 01:19:01;;;;;;;2.25;0.95;;;;;;;;;;1053130;28;20141;-72
2023/09/11 01:19:31;;;;;;;0.43;0.43;;;;;;;;;;1050955;28;20132;-72
2023/09/11 01:20:40;;;;;;;0.55;0.55;;;;;;;;;;1051236;28;20027;-72
2023/09/11 01:21:40;;;;;;;37.72;1.88;;;;;;;;;;1038379;28;20026;-72
2023/09/11 01:22:13;;;;;;;0.47;0.47;;;;;;;;;;1028906;28;20030;-72
2023/09/11 01:22:59;;;;;;;4.70;1.02;;;;;;;;;;1041374;28;20025;-73
2023/09/11 01:23:29;;;;;;;0.30;0.30;;;;;;;;;;1041228;28;20524;-72
2023/09/11 01:24:15;;;;;;;0.63;0.40;;;;;;;;;;1041581;28;20052;-73
2023/09/11 01:24:54;;;;;;;0.20;0.20;;;;;;;;;;1041351;28;20055;-73
2023/09/11 01:25:24;;;;;;;1.65;1.55;;;;;;;;;;1041910;28;20059;-72
2023/09/11 01:26:14;;;;;;;0.73;0.73;;;;;;;;;;1043074;28;20021;-72
2023/09/11 01:26:47;;;;;;;0.20;0.20;;;;;;;;;;1042821;28;20025;-72
2023/09/11 01:27:34;;;;;;;0.70;0.70;;;;;;;;;;1053722;27;20023;-72
2023/09/11 01:28:07;;;;;;;0.88;0.55;;;;;;;;;;1057658;27;20478;-73
2023/09/11 01:28:41;;;;;;;0.70;0.68;;;;;;;;;;1054672;27;20043;-72
2023/09/11 01:29:17;;;;;;;3.85;1.48;;;;;;;;;;1050482;28;20028;-72
2023/09/11 01:29:48;;;;;;;2.80;1.13;;;;;;;;;;1050221;28;20072;-73
2023/09/11 01:30:21;;;;;;;12.93;1.85;;;;;;;;;;1047772;28;20035;-73
2023/09/11 01:30:52;;;;;;;0.20;0.20;;;;;;;;;;1047134;28;20052;-73
2023/09/11 01:31:24;;;;;;;0.52;0.52;;;;;;;;;;1048419;28;20500;-72
2023/09/11 01:31:54;;;;;;;0.40;0.40;;;;;;;;;;1051514;28;20024;-72
2023/09/11 01:32:25;;;;;;;0.35;0.35;;;;;;;;;;1055125;27;20023;-72
2023/09/11 01:32:56;;;;;;;0.80;0.80;;;;;;;;;;1055913;27;20058;-72
2023/09/11 01:33:27;;;;;;;5.22;2.03;;;;;;;;;;1057230;27;20114;-72
2023/09/11 01:34:01;;;;;;;2.17;1.35;;;;;;;;;;1053409;27;20034;-72
2023/09/11 01:34:31;;;;;;;1.20;1.10;;;;;;;;;;1054601;27;20030;-73
2023/09/11 01:35:02;;;;;;;0.38;0.38;;;;;;;;;;1056276;28;20054;-73
2023/09/11 01:35:32;;;;;;;1.63;0.98;;;;;;;;;;1056501;27;20023;-72
2023/09/11 01:36:03;;;;;;;4.18;1.77;;;;;;;;;;1057738;27;20118;-72
2023/09/11 01:36:33;;;;;;;0.98;0.93;;;;;;;;;;1058270;27;20103;-72
2023/09/11 01:37:04;;;;;;;0.80;0.60;;;;;;;;;;1055686;27;20027;-73
2023/09/11 01:37:34;;;;;;;0.85;0.82;;;;;;;;;;1058067;27;20039;-72
2023/09/11 01:38:05;;;;;;;0.43;0.43;;;;;;;;;;1056641;27;20019;-72
2023/09/11 01:38:36;;;;;;;1.25;0.98;;;;;;;;;;1058337;27;20019;-73
2023/09/11 01:39:08;;;;;;;0.45;0.45;;;;;;;;;;1058369;27;20515;-73
2023/09/11 01:39:38;;;;;;;2.40;1.50;;;;;;;;;;1057449;27;20032;-73
2023/09/11 01:40:09;;;;;;;2.40;1.45;;;;;;;;;;1058842;27;20463;-73
2023/09/11 01:40:41;;;;;;;1.88;0.63;;;;;;;;;;1053643;28;20019;-73
2023/09/11 01:41:14;;;;;;;0.10;0.10;;;;;;;;;;1054264;28;20141;-73
2023/09/11 01:41:46;;;;;;;1.65;1.55;;;;;;;;;;1049630;28;20039;-73
2023/09/11 01:42:23;;;;;;;1.10;0.82;;;;;;;;;;1050522;28;20024;-73
2023/09/11 01:42:55;;;;;;;0.13;0.13;;;;;;;;;;1053554;28;20391;-73
2023/09/11 01:43:30;;;;;;;2.05;1.85;;;;;;;;;;1053845;28;20016;-73
2023/09/11 01:44:05;;;;;;;1.90;1.75;;;;;;;;;;1047700;28;20024;-74
2023/09/11 01:44:36;;;;;;;4.05;3.70;;;;;;;;;;1051543;28;20096;-73
2023/09/11 01:45:08;;;;;;;0.52;0.45;;;;;;;;;;1047775;28;20727;-73
2023/09/11 01:45:39;;;;;;;0.17;0.17;;;;;;;;;;1051967;27;20151;-73
2023/09/11 01:46:10;;;;;;;0.75;0.70;;;;;;;;;;1053508;28;20066;-73
2023/09/11 01:46:41;;;;;;;0.50;0.50;;;;;;;;;;1050885;28;20028;-73
2023/09/11 01:47:12;;;;;;;2.63;2.00;;;;;;;;;;1048653;28;20032;-73
2023/09/11 01:47:45;;;;;;;4.95;1.73;;;;;;;;;;1048409;28;20036;-73
2023/09/11 01:48:18;;;;;;;2.50;2.30;;;;;;;;;;1044258;28;20044;-73
2023/09/11 01:48:52;;;;;;;0.15;0.15;;;;;;;;;;1045657;28;20581;-74
2023/09/11 01:49:24;;;;;;;0.90;0.90;;;;;;;;;;1044753;28;20028;-74
2023/09/11 01:49:56;;;;;;;0.52;0.52;;;;;;;;;;1047451;28;20405;-75
2023/09/11 01:50:27;;;;;;;0.13;0.13;;;;;;;;;;1048241;28;20111;-73
2023/09/11 01:50:58;;;;;;;2.85;1.67;;;;;;;;;;1045419;28;20107;-73
2023/09/11 01:51:30;;;;;;;5.15;2.25;;;;;;;;;;1039609;28;20102;-74
2023/09/11 01:52:04;;;;;;;6.85;2.50;;;;;;;;;;1047742;28;20709;-73
2023/09/11 01:52:35;;;;;;;7.68;4.60;;;;;;;;;;1050681;28;20211;-73
2023/09/11 01:53:06;;;;;;;18.40;1.65;;;;;;;;;;1053824;28;20024;-73
2023/09/11 01:53:38;;;;;;;0.98;0.98;;;;;;;;;;1054063;28;20020;-73
2023/09/11 01:54:09;;;;;;;9.38;2.67;;;;;;;;;;1057741;27;20026;-73
2023/09/11 01:54:39;;;;;;;1.10;1.02;;;;;;;;;;1051305;28;20502;-73
2023/09/11 01:55:10;;;;;;;1.80;1.70;;;;;;;;;;1045581;28;20033;-73
2023/09/11 01:55:41;;;;;;;0.20;0.20;;;;;;;;;;1038404;28;20496;-73
2023/09/11 01:56:12;;;;;;;1.00;0.95;;;;;;;;;;1040505;28;20056;-74
2023/09/11 01:56:43;;;;;;;1.48;1.38;;;;;;;;;;1045230;28;20033;-74
2023/09/11 01:57:13;;;;;;;0.47;0.40;;;;;;;;;;1050437;28;20024;-73
2023/09/11 01:57:44;;;;;;;1.00;0.52;;;;;;;;;;1050665;28;20062;-74
2023/09/11 01:58:14;;;;;;;0.25;0.25;;;;;;;;;;1053015;28;20032;-74
2023/09/11 01:58:45;;;;;;;1.10;1.00;;;;;;;;;;1057044;27;20024;-73
2023/09/11 01:59:15;;;;;;;2.63;1.98;;;;;;;;;;1057612;27;20026;-73
2023/09/11 01:59:46;;;;;;;8.10;2.20;;;;;;;;;;1049227;28;20499;-73
2023/09/11 02:00:16;;;;;;;3.08;1.40;;;;;;;;;;1051775;28;20094;-73
2023/09/11 02:00:47;;;;;;;10.85;2.65;;;;;;;;;;1052609;28;20020;-73
2023/09/11 02:01:17;;;;;;;1.77;1.67;;;;;;;;;;1047128;28;20035;-73
2023/09/11 02:01:48;;;;;;;1.48;0.98;;;;;;;;;;1045546;28;20119;-73
2023/09/11 02:02:19;;;;;;;2.55;1.45;;;;;;;;;;1050177;28;20513;-73
2023/09/11 02:02:53;;;;;;;3.35;3.03;;;;;;;;;;1052614;27;20488;-73
2023/09/11 02:03:23;;;;;;;4.35;3.03;;;;;;;;;;1052419;27;20346;-73
2023/09/11 02:03:54;;;;;;;9.18;1.75;;;;;;;;;;1052247;27;20024;-74
2023/09/11 02:04:24;;;;;;;2.15;1.95;;;;;;;;;;1051871;27;20035;-73
2023/09/11 02:04:55;;;;;;;1.75;1.30;;;;;;;;;;1054371;27;20020;-73
2023/09/11 02:05:25;;;;;;;0.80;0.55;;;;;;;;;;1056056;27;20486;-73
2023/09/11 02:05:56;;;;;;;1.27;1.20;;;;;;;;;;1045107;28;20693;-73
2023/09/11 02:06:27;;;;;;;1.23;1.13;;;;;;;;;;1044666;28;20391;-73
2023/09/11 02:06:57;;;;;;;4.50;1.45;;;;;;;;;;1049660;28;20031;-73
2023/09/11 02:07:28;;;;;;;2.10;1.67;;;;;;;;;;1051321;28;20570;-73
2023/09/11 02:07:58;;;;;;;5.78;2.38;;;;;;;;;;1053264;27;20529;-73
2023/09/11 02:08:29;;;;;;;1.65;1.38;;;;;;;;;;1055894;27;20050;-73
2023/09/11 02:08:59;;;;;;;0.10;0.10;;;;;;;;;;1056780;27;20102;-73
2023/09/11 02:09:30;;;;;;;1.83;1.50;;;;;;;;;;1056933;27;20135;-73
2023/09/11 02:10:00;;;;;;;3.10;1.88;;;;;;;;;;1055737;27;20028;-73
2023/09/11 02:10:31;;;;;;;3.97;1.30;;;;;;;;;;1056264;27;20031;-73
2023/09/11 02:11:01;;;;;;;1.75;1.17;;;;;;;;;;1053697;28;20023;-74
2023/09/11 02:11:32;;;;;;;5.60;1.55;;;;;;;;;;1051059;28;20028;-74
2023/09/11 02:12:02;;;;;;;3.70;2.05;;;;;;;;;;1051286;28;20129;-74
2023/09/11 02:12:32;;;;;;;5.07;2.03;;;;;;;;;;1047782;28;20142;-74
2023/09/11 02:13:03;;;;;;;3.42;3.13;;;;;;;;;;1047893;28;20874;-73
2023/09/11 02:13:35;;;;;;;3.92;0.52;;;;;;;;;;1053452;28;20035;-73
2023/09/11 02:14:05;;;;;;;3.40;1.65;;;;;;;;;;1052067;27;20032;-74
2023/09/11 02:14:36;;;;;;;4.53;0.47;;;;;;;;;;1055361;27;20047;-74
2023/09/11 02:15:06;;;;;;;1.27;1.17;;;;;;;;;;1053994;27;20396;-73
2023/09/11 02:15:37;;;;;;;1.95;1.17;;;;;;;;;;1053546;28;20131;-73
2023/09/11 02:16:07;;;;;;;2.53;1.48;;;;;;;;;;1052976;28;20072;-73
2023/09/11 02:16:38;;;;;;;0.75;0.70;;;;;;;;;;1051773;28;20150;-73
2023/09/11 02:17:08;;;;;;;1.02;0.95;;;;;;;;;;1053046;28;20027;-74
2023/09/11 02:17:39;;;;;;;1.05;0.65;;;;;;;;;;1050403;28;20120;-74
2023/09/11 02:18:09;;;;;;;1.65;1.52;;;;;;;;;;1048057;28;20599;-73
2023/09/11 02:18:40;;;;;;;0.40;0.40;;;;;;;;;;1051140;28;20077;-73
2023/09/11 02:19:11;;;;;;;17.80;1.10;;;;;;;;;;1052743;28;20063;-73
2023/09/11 02:19:42;;;;;;;0.30;0.30;;;;;;;;;;1056192;27;20118;-73
2023/09/11 02:20:15;;;;;;;0.47;0.30;;;;;;;;;;1054377;27;20038;-73
2023/09/11 02:20:47;;;;;;;0.90;0.82;;;;;;;;;;1051677;27;20066;-74
2023/09/11 02:21:18;;;;;;;13.15;3.00;;;;;;;;;;1052315;27;20066;-73
2023/09/11 02:21:49;;;;;;;7.28;0.85;;;;;;;;;;1055493;27;20055;-74
2023/09/11 02:22:19;;;;;;;13.07;2.03;;;;;;;;;;1049057;28;20424;-74
2023/09/11 02:22:49;;;;;;;1.35;0.63;;;;;;;;;;1049851;28;20052;-73
2023/09/11 02:23:22;;;;;;;0.95;0.93;;;;;;;;;;1050029;28;20059;-73
2023/09/11 02:23:52;;;;;;;3.33;1.17;;;;;;;;;;1051160;28;20122;-73
2023/09/11 02:24:23;;;;;;;2.08;1.95;;;;;;;;;;1048581;28;20017;-75
2023/09/11 02:24:54;;;;;;;1.13;1.00;;;;;;;;;;1051771;28;20056;-75
2023/09/11 02:25:25;;;;;;;4.60;2.22;;;;;;;;;;1050298;28;20685;-73
2023/09/11 02:25:57;;;;;;;1.50;1.13;;;;;;;;;;1039784;28;20101;-73
2023/09/11 02:26:27;;;;;;;0.93;0.77;;;;;;;;;;1039147;28;20099;-73
2023/09/11 02:26:58;;;;;;;1.25;1.02;;;;;;;;;;1044700;28;20879;-73
2023/09/11 02:27:28;;;;;;;5.45;0.60;;;;;;;;;;1048489;27;21011;-73
2023/09/11 02:27:59;;;;;;;2.38;2.20;;;;;;;;;;1049497;28;20517;-73
2023/09/11 02:28:31;;;;;;;0.10;0.10;;;;;;;;;;1051387;28;20062;-74
2023/09/11 02:29:02;;;;;;;1.38;1.27;;;;;;;;;;1049052;28;20032;-74
2023/09/11 02:29:32;;;;;;;0.52;0.25;;;;;;;;;;1054077;27;20119;-75
2023/09/11 02:30:06;;;;;;;0.75;0.73;;;;;;;;;;1053575;27;20798;-75
2023/09/11 02:30:36;;;;;;;1.38;1.27;;;;;;;;;;1048660;28;20559;-74
2023/09/11 02:31:07;;;;;;;6.65;0.63;;;;;;;;;;1050423;28;20031;-74
2023/09/11 02:31:38;;;;;;;1.02;0.65;;;;;;;;;;1047231;28;20083;-74
2023/09/11 02:32:08;;;;;;;1.77;1.67;;;;;;;;;;1044051;28;20032;-74
2023/09/11 02:32:39;;;;;;;0.50;0.50;;;;;;;;;;1046930;28;20446;-74
2023/09/11 02:33:10;;;;;;;4.07;1.95;;;;;;;;;;1043059;28;20028;-74
2023/09/11 02:33:40;;;;;;;0.70;0.70;;;;;;;;;;1043330;28;20025;-74
2023/09/11 02:34:11;;;;;;;14.68;2.35;;;;;;;;;;1048070;28;20020;-74
2023/09/11 02:34:41;;;;;;;2.40;1.40;;;;;;;;;;1046357;28;20032;-74
2023/09/11 02:35:12;;;;;;;1.30;1.23;;;;;;;;;;1047501;28;20027;-74
2023/09/11 02:35:42;;;;;;;0.63;0.55;;;;;;;;;;1050384;28;20054;-74
2023/09/11 02:36:13;;;;;;;3.50;1.05;;;;;;;;;;1051323;28;20092;-74
2023/09/11 02:36:43;;;;;;;1.60;1.50;;;;;;;;;;1048030;28;20042;-75
2023/09/11 02:37:14;;;;;;;3.47;3.20;;;;;;;;;;1048408;28;20035;-74
2023/09/11 02:37:44;;;;;;;8.18;4.18;;;;;;;;;;1055998;27;20023;-75
2023/09/11 02:38:14;;;;;;;1.95;1.60;;;;;;;;;;1054955;27;20019;-74
2023/09/11 02:38:45;;;;;;;8.32;2.28;;;;;;;;;;1055208;27;20031;-74
2023/09/11 02:39:15;;;;;;;2.15;2.03;;;;;;;;;;1050946;28;20027;-74
2023/09/11 02:39:46;;;;;;;12.30;3.33;;;;;;;;;;1049076;28;20057;-74
2023/09/11 02:40:16;;;;;;;1.20;1.02;;;;;;;;;;1046727;28;20895;-74
2023/09/11 02:40:47;;;;;;;0.50;0.50;;;;;;;;;;1047467;28;20118;-75
2023/09/11 02:41:17;;;;;;;1.30;1.00;;;;;;;;;;1047386;28;20016;-74
2023/09/11 02:41:47;;;;;;;2.22;1.70;;;;;;;;;;1048988;28;20038;-74
2023/09/11 02:42:18;;;;;;;4.82;3.22;;;;;;;;;;1042422;28;20143;-74
2023/09/11 02:42:49;;;;;;;13.27;2.80;;;;;;;;;;1043278;28;20524;-74
2023/09/11 02:43:20;;;;;;;0.85;0.85;;;;;;;;;;1046354;28;20032;-74
2023/09/11 02:43:50;;;;;;;3.10;1.80;;;;;;;;;;1046770;28;20454;-74
2023/09/11 02:44:21;;;;;;;2.15;1.95;;;;;;;;;;1054778;27;20027;-74
2023/09/11 02:44:51;;;;;;;0.60;0.60;;;;;;;;;;1053737;27;20039;-74
2023/09/11 02:45:22;;;;;;;2.03;1.60;;;;;;;;;;1054923;27;20019;-74
2023/09/11 02:45:52;;;;;;;0.85;0.75;;;;;;;;;;1045747;28;20028;-74
2023/09/11 02:46:22;;;;;;;0.98;0.98;;;;;;;;;;1048377;28;20114;-74
2023/09/11 02:46:53;;;;;;;1.08;0.98;;;;;;;;;;1043544;28;20368;-74
2023/09/11 02:47:23;;;;;;;20.88;3.92;;;;;;;;;;1047204;28;20787;-74
2023/09/11 02:47:54;;;;;;;8.07;3.42;;;;;;;;;;1046611;28;20490;-74
2023/09/11 02:48:25;;;;;;;2.78;1.75;;;;;;;;;;1048094;28;20051;-74
2023/09/11 02:48:55;;;;;;;2.05;1.10;;;;;;;;;;1052176;28;20030;-74
2023/09/11 02:49:26;;;;;;;0.63;0.63;;;;;;;;;;1045658;28;20024;-74
2023/09/11 02:49:56;;;;;;;0.80;0.77;;;;;;;;;;1051620;28;20028;-74
2023/09/11 02:50:27;;;;;;;0.75;0.75;;;;;;;;;;1046426;28;20123;-73
2023/09/11 02:50:57;;;;;;;0.98;0.73;;;;;;;;;;1048313;28;20045;-74
2023/09/11 02:51:30;;;;;;;2.70;2.50;;;;;;;;;;1051397;27;20028;-75
2023/09/11 02:52:00;;;;;;;23.98;2.42;;;;;;;;;;1056310;27;20047;-74
2023/09/11 02:52:31;;;;;;;1.23;1.20;;;;;;;;;;1048570;28;20057;-74
2023/09/11 02:53:01;;;;;;;2.08;1.55;;;;;;;;;;1049040;28;20490;-74
2023/09/11 02:53:32;;;;;;;4.65;1.02;;;;;;;;;;1048076;28;20019;-74
2023/09/11 02:54:02;;;;;;;2.45;1.45;;;;;;;;;;1046869;28;20120;-75
2023/09/11 02:54:33;;;;;;;0.52;0.50;;;;;;;;;;1056178;27;20031;-74
2023/09/11 02:55:04;;;;;;;2.42;2.25;;;;;;;;;;1056180;27;20035;-74
2023/09/11 02:55:38;;;;;;;2.13;2.03;;;;;;;;;;1053277;28;21106;-74
2023/09/11 02:56:08;;;;;;;3.08;2.83;;;;;;;;;;1052220;27;20062;-74
2023/09/11 02:56:39;;;;;;;12.18;2.03;;;;;;;;;;1053931;27;20034;-74
2023/09/11 02:57:09;;;;;;;1.70;1.60;;;;;;;;;;1052959;27;20429;-74
2023/09/11 02:57:41;;;;;;;2.13;1.17;;;;;;;;;;1047771;28;20675;-74
2023/09/11 02:58:11;;;;;;;1.30;1.25;;;;;;;;;;1050440;28;20130;-74
2023/09/11 02:58:42;;;;;;;0.60;0.52;;;;;;;;;;1047481;28;21056;-73
2023/09/11 02:59:12;;;;;;;3.10;2.80;;;;;;;;;;1050296;28;20065;-73
2023/09/11 02:59:43;;;;;;;1.65;1.55;;;;;;;;;;1048884;28;20094;-73
2023/09/11 03:00:13;;;;;;;1.65;1.52;;;;;;;;;;1047684;28;20114;-74
2023/09/11 03:00:44;;;;;;;0.70;0.70;;;;;;;;;;1047127;28;20032;-74
2023/09/11 03:01:15;;;;;;;1.50;1.40;;;;;;;;;;1048585;28;20031;-72
2023/09/11 03:01:45;;;;;;;3.00;1.80;;;;;;;;;;1047689;28;20508;-73
2023/09/11 03:02:15;;;;;;;1.48;1.33;;;;;;;;;;1050639;27;20034;-73
2023/09/11 03:02:46;;;;;;;3.70;2.05;;;;;;;;;;1054190;27;20065;-74
2023/09/11 03:03:16;;;;;;;41.00;1.73;;;;;;;;;;1052659;27;20129;-73
2023/09/11 03:03:47;;;;;;;8.60;2.83;;;;;;;;;;1051563;27;20019;-74
2023/09/11 03:04:17;;;;;;;2.47;2.28;;;;;;;;;;1050270;28;20058;-73
2023/09/11 03:04:51;;;;;;;5.15;3.25;;;;;;;;;;1050056;28;20037;-74
2023/09/11 03:05:22;;;;;;;6.63;1.65;;;;;;;;;;1049656;28;20145;-74
2023/09/11 03:05:56;;;;;;;1.92;1.67;;;;;;;;;;1043113;28;20033;-74
2023/09/11 03:06:27;;;;;;;4.53;2.67;;;;;;;;;;1049651;27;20217;-73
2023/09/11 03:07:01;;;;;;;0.95;0.88;;;;;;;;;;1052681;27;20015;-76
2023/09/11 03:07:32;;;;;;;2.13;1.30;;;;;;;;;;1054519;27;20065;-74
2023/09/11 03:08:03;;;;;;;0.32;0.30;;;;;;;;;;1054077;27;20463;-73
2023/09/11 03:08:33;;;;;;;1.20;1.10;;;;;;;;;;1055520;27;20030;-75